KGON/GON METAR and TAF weather

Enter ICAO airport designator
Station Type Date Time Source
KGON METAR 2021/02/24 17:56 UTC NOAA

KGON 241756Z 24011KT 10SM CLR 08/01 A2998 RMK AO2 SLP150 T00780006 10083 20039 58023


Station Type Date Time Source
KGON Decoded METAR 2021/02/24 17:56 UTC NOAA

GROTON/NEW LONDON AIRPORT , CT, United States (KGON) 41-20N 72-03W 3M
Feb 24, 2021 - 12:56 PM EST / 2021.02.24 1756 UTC
Wind: from the WSW (240 degrees) at 13 MPH (11 KT):0
Visibility: 10 mile(s):0
Sky conditions: clear
Temperature: 46.0 F (7.8 C)
Dew Point: 33.1 F (0.6 C)
Relative Humidity: 60%
Pressure (altimeter): 29.98 in. Hg (1015 hPa)
Pressure tendency: 0.07 inches (2.3 hPa) lower than three hours ago
ob: KGON 241756Z 24011KT 10SM CLR 08/01 A2998 RMK AO2 SLP150 T00780006 10083 20039 58023
cycle: 18

Station Type Date Time Source
KGON TAF 2021/02/24 18:30 UTC NOAA

TAF KGON 241727Z 2418/2518 22010KT P6SM FEW040 FEW250
FM242100 20014KT P6SM FEW040 SCT250
FM250200 23011KT P6SM SCT040 BKN080 WS020/24045KT
FM250900 28011G19KT P6SM FEW040 BKN150
FM251200 31014G24KT P6SM FEW250

Example: see airport list